Time;durP1;ratioP1;P1;durP2;ratioP2;P2;SDS_P1;SDS_P2;PMS_P1;PMS_P2;Temp;Humidity;BMP_temperature;BMP_pressure;BME280_temperature;BME280_humidity;BME280_pressure;Samples;Min_cycle;Max_cycle;Signal;HPM_P1;HPM_P2
2023/01/05 00:01:43;;;;;;;2.45;1.88;;;18.10;75.20;;;18.77;42.46;98229.06;5017688;28;20036;-81
2023/01/05 00:04:09;;;;;;;1.95;1.73;;;18.10;75.30;;;18.77;42.64;98223.59;5030334;28;20044;-81
2023/01/05 00:06:36;;;;;;;3.90;2.65;;;18.10;75.20;;;18.79;42.29;98215.00;5018941;28;20040;-81
2023/01/05 00:09:03;;;;;;;4.18;2.10;;;18.00;75.20;;;18.77;42.39;98214.53;5002961;28;20053;-81
2023/01/05 00:22:51;;;;;;;3.00;2.30;;;18.00;75.20;;;18.69;42.67;98213.47;5048826;28;20071;-81
2023/01/05 00:25:28;;;;;;;1.95;1.70;;;18.10;75.40;;;18.70;42.59;98212.34;5030844;28;20037;-81
2023/01/05 00:27:56;;;;;;;1.67;1.58;;;18.10;75.40;;;18.71;42.34;98207.66;5017947;28;20054;-81
2023/01/05 00:30:29;;;;;;;2.50;2.20;;;18.00;75.20;;;18.72;42.50;98212.78;5019457;28;20041;-81
2023/01/05 00:32:55;;;;;;;2.15;1.85;;;18.10;75.20;;;18.74;42.39;98206.97;5029998;28;20408;-81
2023/01/05 00:35:22;;;;;;;1.85;1.42;;;18.10;75.20;;;18.70;42.49;98206.84;5000898;28;20045;-81
2023/01/05 00:37:48;;;;;;;1.98;1.65;;;18.10;75.20;;;18.71;42.55;98207.66;5016739;28;20036;-81
2023/01/05 00:40:17;;;;;;;1.70;1.60;;;18.10;75.20;;;18.73;42.44;98217.16;4999794;28;20110;-81
2023/01/05 00:42:44;;;;;;;1.88;1.70;;;18.00;75.20;;;18.77;42.45;98207.09;5013840;28;20388;-81
2023/01/05 00:45:12;;;;;;;1.92;1.50;;;18.00;75.20;;;18.75;42.51;98195.66;5019863;28;20446;-81
2023/01/05 00:47:39;;;;;;;2.33;2.03;;;18.00;75.30;;;18.69;42.47;98177.75;5024276;28;20050;-81
2023/01/05 00:50:07;;;;;;;2.30;1.92;;;18.00;75.20;;;18.69;42.68;98176.97;4996277;28;20045;-81
2023/01/05 00:52:34;;;;;;;2.88;1.95;;;18.10;75.20;;;18.75;42.32;98181.94;4984314;28;20094;-81
2023/01/05 00:55:00;;;;;;;1.85;1.73;;;18.00;75.20;;;18.69;42.42;98186.00;4999734;28;20044;-81
2023/01/05 00:57:29;;;;;;;1.88;1.75;;;18.00;75.30;;;18.76;42.44;98180.78;4999320;28;20059;-81
2023/01/05 00:59:55;;;;;;;2.42;1.60;;;18.00;75.30;;;18.73;42.47;98170.44;4997631;28;20052;-81
2023/01/05 01:02:21;;;;;;;3.55;1.85;;;18.00;75.20;;;18.68;42.77;98170.69;5016656;28;20124;-81
2023/01/05 01:04:47;;;;;;;2.35;1.52;;;18.00;75.20;;;18.68;42.36;98170.69;5001165;28;20036;-81
2023/01/05 01:07:13;;;;;;;3.10;2.10;;;18.00;75.20;;;18.74;42.50;98157.50;5032599;28;20037;-81
2023/01/05 01:09:40;;;;;;;2.08;1.45;;;18.00;75.20;;;18.76;42.31;98160.75;5022528;28;20041;-81
2023/01/05 01:12:06;;;;;;;1.58;1.42;;;18.00;75.20;;;18.73;42.46;98164.97;4999588;28;20610;-81
2023/01/05 01:14:32;;;;;;;2.38;2.05;;;18.00;75.20;;;18.74;42.37;98174.78;4997837;28;20041;-81
2023/01/05 01:16:58;;;;;;;1.65;1.55;;;18.00;75.10;;;18.69;42.41;98164.03;4997919;28;20044;-81
2023/01/05 01:19:25;;;;;;;1.98;1.73;;;18.00;75.10;;;18.71;42.47;98172.72;4996120;28;20041;-81
2023/01/05 01:21:52;;;;;;;1.98;1.70;;;18.00;75.20;;;18.71;42.43;98174.69;4990378;28;20091;-81
2023/01/05 01:24:21;;;;;;;1.60;1.50;;;18.00;75.10;;;18.67;42.34;98160.81;5004184;28;20107;-81
2023/01/05 01:26:47;;;;;;;1.35;1.25;;;18.00;75.10;;;18.73;42.32;98159.47;5012058;28;20045;-81
2023/01/05 01:29:16;;;;;;;1.10;1.10;;;18.00;75.30;;;18.68;42.35;98159.69;5010138;28;20040;-81
2023/01/05 01:31:43;;;;;;;1.98;1.60;;;18.00;75.20;;;18.66;42.54;98140.78;5034715;28;20052;-81
2023/01/05 01:34:09;;;;;;;1.00;1.00;;;18.00;75.10;;;18.68;42.35;98136.91;5014448;28;20147;-81
2023/01/05 01:36:36;;;;;;;2.03;1.67;;;18.00;75.10;;;18.69;42.25;98133.81;5033056;28;20049;-81
2023/01/05 01:39:02;;;;;;;2.05;1.30;;;18.00;75.10;;;18.74;42.27;98141.03;5031356;28;20041;-81
2023/01/05 01:41:28;;;;;;;1.60;1.50;;;18.00;75.20;;;18.71;42.35;98136.22;5034152;28;20485;-81
2023/01/05 01:43:55;;;;;;;2.03;1.55;;;18.00;75.10;;;18.69;42.23;98139.31;5013128;28;20124;-81
2023/01/05 01:46:22;;;;;;;1.70;1.60;;;18.00;75.20;;;18.64;42.53;98137.59;5021582;28;20098;-81
2023/01/05 01:49:04;;;;;;;2.38;1.77;;;18.00;75.20;;;18.60;42.47;98130.41;5018807;28;20098;-81
2023/01/05 01:51:34;;;;;;;2.13;1.52;;;18.00;75.20;;;18.62;42.73;98128.09;5032286;28;20049;-81
2023/01/05 01:54:04;;;;;;;1.75;1.50;;;18.00;75.20;;;18.60;42.61;98122.16;5027436;28;20072;-81
2023/01/05 01:56:35;;;;;;;1.40;1.30;;;18.00;75.20;;;18.59;42.69;98110.34;5033268;28;20037;-81
2023/01/05 01:59:01;;;;;;;1.58;1.48;;;18.00;75.20;;;18.61;42.63;98116.28;5033965;28;20045;-81
2023/01/05 02:01:27;;;;;;;4.13;2.17;;;18.00;75.10;;;18.67;42.42;98105.88;5035005;28;20101;-81
2023/01/05 02:03:54;;;;;;;1.75;1.33;;;18.00;75.10;;;18.60;42.47;98103.72;5034234;28;20472;-81
2023/01/05 02:06:20;;;;;;;1.73;1.63;;;18.00;75.10;;;18.64;42.78;98087.34;5002367;28;20496;-81
2023/01/05 02:08:46;;;;;;;1.80;1.25;;;18.00;75.30;;;18.55;42.72;98083.94;5042380;28;20127;-81
2023/01/05 02:11:42;;;;;;;1.30;1.20;;;18.00;75.20;;;18.57;42.63;98078.88;5052913;28;20055;-81
2023/01/05 02:14:14;;;;;;;1.15;1.10;;;18.00;75.10;;;18.63;42.50;98067.31;5054320;28;20048;-81
2023/01/05 02:17:08;;;;;;;2.10;1.40;;;18.00;75.10;;;18.64;42.56;98071.66;5046154;28;20045;-81
2023/01/05 02:20:24;;;;;;;2.83;1.42;;;18.00;75.10;;;18.56;42.66;98050.63;5034961;28;20049;-81
2023/01/05 02:23:37;;;;;;;2.42;1.35;;;18.00;75.10;;;18.57;42.56;98059.66;5057498;28;20075;-81
2023/01/05 02:26:55;;;;;;;1.35;1.20;;;18.00;75.20;;;18.56;42.75;98063.56;5045448;28;20535;-81
2023/01/05 02:29:56;;;;;;;1.38;1.27;;;18.00;75.20;;;18.59;42.62;98049.13;4966088;28;20049;-81
2023/01/05 02:32:32;;;;;;;1.15;1.15;;;18.00;75.10;;;18.59;42.58;98058.16;5068983;28;20044;-81
2023/01/05 02:35:25;;;;;;;1.30;1.20;;;18.00;75.20;;;18.59;42.55;98046.38;5017177;28;20062;-81
2023/01/05 02:38:14;;;;;;;1.33;1.17;;;18.00;75.20;;;18.51;42.64;98042.59;5037662;28;20169;-81
2023/01/05 02:40:44;;;;;;;1.50;1.40;;;18.00;75.30;;;18.54;42.64;98054.84;5023208;28;20044;-81
2023/01/05 02:43:12;;;;;;;1.40;1.30;;;18.00;75.10;;;18.52;42.81;98043.41;5037421;28;20151;-81
2023/01/05 02:45:39;;;;;;;1.10;1.10;;;18.00;75.10;;;18.51;42.86;98045.34;5051699;28;20045;-81
2023/01/05 02:48:05;;;;;;;1.20;1.10;;;18.00;75.00;;;18.58;42.72;98040.09;5031578;28;20040;-81
2023/01/05 02:50:37;;;;;;;1.05;1.05;;;18.00;75.10;;;18.56;42.60;98033.34;5012597;28;20052;-81
2023/01/05 02:53:24;;;;;;;1.10;1.00;;;18.00;75.20;;;18.49;42.91;98047.63;5032763;28;20049;-81
2023/01/05 02:55:59;;;;;;;1.25;1.15;;;18.00;75.20;;;18.53;42.86;98039.53;5035284;28;20135;-81
2023/01/05 02:58:35;;;;;;;1.55;1.10;;;18.00;75.20;;;18.56;42.58;98027.84;5037696;28;20442;-81
2023/01/05 03:01:12;;;;;;;1.08;0.98;;;18.00;75.20;;;18.59;42.75;98035.38;5016271;28;20045;-81
2023/01/05 03:03:50;;;;;;;1.30;1.20;;;18.00;75.20;;;18.57;42.71;98030.25;5032095;28;20047;-81
2023/01/05 03:06:31;;;;;;;1.35;1.20;;;18.00;75.20;;;18.47;42.93;98017.00;5020463;28;20082;-81
2023/01/05 03:08:59;;;;;;;0.75;0.75;;;18.00;75.20;;;18.48;42.87;98007.59;5004599;28;20037;-81
2023/01/05 03:14:31;;;;;;;1.58;1.45;;;18.00;75.10;;;18.53;42.80;97992.84;5024249;28;20041;-81
2023/01/05 03:16:57;;;;;;;1.40;1.30;;;17.90;75.20;;;18.56;42.62;97994.88;5040062;28;20416;-81
2023/01/05 03:19:38;;;;;;;1.60;1.00;;;18.00;75.20;;;18.54;42.63;97989.72;5028202;28;20044;-81
2023/01/05 03:36:55;;;;;;;1.33;1.05;;;18.00;75.00;;;18.41;42.88;97964.25;5059357;28;20414;-81
2023/01/05 03:39:25;;;;;;;1.00;1.00;;;18.00;75.10;;;18.45;43.16;97980.84;5049374;28;20044;-81
2023/01/05 03:41:51;;;;;;;0.85;0.85;;;18.00;75.20;;;18.44;42.90;97981.97;5031048;28;20098;-81
2023/01/05 03:44:18;;;;;;;0.90;0.90;;;18.00;75.10;;;18.47;42.83;97984.03;5047966;28;20037;-81
2023/01/05 03:46:43;;;;;;;1.13;0.90;;;18.00;75.10;;;18.41;42.95;97977.97;5031867;28;20710;-81
2023/01/05 03:49:10;;;;;;;1.30;1.15;;;18.00;75.10;;;18.45;42.93;97975.34;5029613;28;20036;-81
2023/01/05 03:51:36;;;;;;;1.13;1.05;;;18.00;75.00;;;18.50;42.88;97972.38;5033376;28;20615;-81
2023/01/05 03:54:02;;;;;;;0.90;0.90;;;18.00;75.00;;;18.46;42.76;97970.66;5027001;28;20153;-80
2023/01/05 03:56:28;;;;;;;1.10;1.00;;;18.00;75.10;;;18.46;42.93;97970.66;5012558;28;20041;-81
2023/01/05 03:58:55;;;;;;;1.33;1.10;;;18.00;75.10;;;18.49;42.82;97967.22;5031694;28;20506;-80
2023/01/05 04:01:21;;;;;;;1.67;1.10;;;18.00;75.10;;;18.47;42.99;97970.31;5018179;28;20044;-81
2023/01/05 04:03:47;;;;;;;1.20;1.10;;;18.00;75.10;;;18.42;43.05;97976.03;5045156;28;20037;-80
2023/01/05 04:06:13;;;;;;;1.60;1.02;;;18.00;75.10;;;18.47;42.89;97977.72;5030962;28;20083;-81
2023/01/05 04:08:39;;;;;;;1.05;0.98;;;18.00;75.00;;;18.43;42.88;97967.44;5014650;28;20041;-81
2023/01/05 04:11:19;;;;;;;1.20;1.00;;;18.00;75.10;;;18.42;42.85;97959.56;5027721;28;20105;-81
2023/01/05 04:13:45;;;;;;;0.47;0.47;;;18.00;75.00;;;18.47;42.96;97958.50;5017598;28;20033;-81
2023/01/05 04:16:11;;;;;;;0.73;0.73;;;18.00;75.00;;;18.46;42.76;97954.97;5029572;28;20049;-81
2023/01/05 04:18:37;;;;;;;0.98;0.98;;;18.00;75.10;;;18.47;42.84;97947.53;5028734;28;20098;-80
2023/01/05 04:21:04;;;;;;;1.08;1.08;;;18.00;75.00;;;18.43;43.09;97956.47;5012857;28;20044;-81
2023/01/05 04:23:30;;;;;;;0.95;0.93;;;18.00;75.00;;;18.44;43.01;97960.81;5009212;28;20045;-81
2023/01/05 04:25:56;;;;;;;0.80;0.80;;;18.00;75.10;;;18.44;43.04;97960.00;4995447;28;20037;-81
2023/01/05 04:28:22;;;;;;;1.00;1.00;;;18.00;75.10;;;18.43;42.79;97953.72;5026321;28;20045;-81
2023/01/05 04:30:50;;;;;;;0.73;0.73;;;18.00;75.00;;;18.47;42.82;97961.25;4998313;28;20048;-81
2023/01/05 04:33:17;;;;;;;0.80;0.80;;;18.00;75.10;;;18.47;42.81;97962.06;5015283;28;20491;-81
2023/01/05 04:35:43;;;;;;;1.10;1.00;;;18.00;75.20;;;18.49;42.86;97972.69;4995512;28;20045;-81
2023/01/05 04:38:09;;;;;;;0.55;0.52;;;18.00;75.10;;;18.42;42.88;97954.88;5014785;28;20087;-81
2023/01/05 04:40:35;;;;;;;0.80;0.80;;;18.00;75.20;;;18.38;43.08;97969.63;5003115;28;20060;-81
2023/01/05 04:43:01;;;;;;;0.80;0.60;;;18.00;75.20;;;18.41;43.03;97956.00;5036662;28;20075;-81
2023/01/05 04:45:27;;;;;;;1.05;0.95;;;18.00;75.20;;;18.48;42.91;97971.91;4999375;28;20911;-81
2023/01/05 04:47:54;;;;;;;0.77;0.77;;;18.00;75.10;;;18.45;42.81;97958.88;5029006;28;20116;-81
2023/01/05 04:50:19;;;;;;;0.70;0.70;;;18.00;75.10;;;18.43;43.08;97952.91;4998943;28;20062;-81
2023/01/05 04:52:46;;;;;;;1.08;0.95;;;18.00;75.10;;;18.43;43.04;97964.69;5023620;28;20049;-81
2023/01/05 04:55:12;;;;;;;0.90;0.90;;;18.00;75.20;;;18.41;43.03;97966.19;4991781;28;20106;-81
2023/01/05 04:57:38;;;;;;;0.95;0.95;;;18.00;75.30;;;18.40;43.03;97973.63;5016835;28;20457;-81
2023/01/05 05:00:05;;;;;;;0.68;0.63;;;18.00;75.20;;;18.38;43.07;97958.66;5037049;28;20091;-81
2023/01/05 05:02:32;;;;;;;0.70;0.70;;;17.90;75.20;;;18.40;43.16;97957.16;5025561;28;20052;-81
2023/01/05 05:04:58;;;;;;;0.85;0.85;;;18.00;75.30;;;18.37;42.95;97960.59;4984178;28;20563;-81
2023/01/05 05:07:25;;;;;;;1.02;0.95;;;18.00;75.30;;;18.35;43.14;97965.63;5005166;28;20428;-81
2023/01/05 05:09:50;;;;;;;0.60;0.60;;;18.00;75.20;;;18.40;43.26;97981.88;4983765;28;20041;-80
2023/01/05 05:12:20;;;;;;;0.75;0.75;;;18.00;75.20;;;18.42;43.23;97976.03;5014456;28;20049;-81
2023/01/05 05:14:49;;;;;;;0.80;0.80;;;18.00;75.50;;;18.40;43.17;97968.13;4997490;28;20461;-81
2023/01/05 05:17:15;;;;;;;0.60;0.60;;;18.00;75.50;;;18.40;43.13;97970.88;5035352;28;20048;-81
2023/01/05 05:19:42;;;;;;;1.15;1.05;;;17.90;75.30;;;18.38;43.08;97953.94;5047471;28;20071;-82
2023/01/05 05:22:08;;;;;;;0.73;0.68;;;18.00;75.30;;;18.37;43.22;97954.31;5038131;28;20396;-81
2023/01/05 05:24:34;;;;;;;0.70;0.70;;;18.00;75.30;;;18.40;43.14;97951.66;5030687;28;20048;-81
2023/01/05 05:27:00;;;;;;;0.70;0.70;;;17.90;75.20;;;18.37;43.16;97948.81;5014303;28;20045;-81
2023/01/05 05:29:27;;;;;;;0.82;0.63;;;18.00;75.40;;;18.37;43.28;97952.38;5033257;28;20075;-81
2023/01/05 05:31:53;;;;;;;0.77;0.77;;;18.00;75.50;;;18.38;43.20;97948.47;5030989;28;20044;-81
2023/01/05 05:34:19;;;;;;;0.65;0.65;;;18.00;75.50;;;18.38;43.28;97951.22;5052569;28;20040;-81
2023/01/05 05:36:45;;;;;;;1.17;0.85;;;18.00;75.30;;;18.37;43.15;97948.81;5051020;28;20043;-81
2023/01/05 05:39:12;;;;;;;0.80;0.80;;;17.90;75.30;;;18.32;43.19;97938.06;5033922;28;20044;-81
2023/01/05 05:41:38;;;;;;;1.92;0.90;;;17.90;75.30;;;18.35;43.42;97951.91;5051013;28;20048;-81
2023/01/05 05:44:04;;;;;;;0.95;0.93;;;18.00;76.20;;;18.40;43.26;97953.63;5036797;28;20033;-81
2023/01/05 05:46:30;;;;;;;1.02;0.90;;;18.00;75.50;;;18.35;43.24;97949.16;5034338;28;20041;-81
2023/01/05 05:48:56;;;;;;;0.65;0.65;;;18.00;75.50;;;18.35;43.29;97935.44;5033376;28;20040;-81
2023/01/05 05:51:23;;;;;;;0.85;0.85;;;18.00;75.40;;;18.35;43.24;97934.63;5007175;28;20366;-81
2023/01/05 05:53:49;;;;;;;0.98;0.98;;;17.90;75.40;;;18.36;43.14;97942.50;5038001;28;20119;-81
2023/01/05 05:56:15;;;;;;;0.90;0.60;;;17.90;75.40;;;18.33;43.36;97951.44;5048946;28;20375;-80
2023/01/05 05:58:41;;;;;;;1.27;1.17;;;17.90;75.30;;;18.35;43.38;97942.88;5035266;28;20049;-80
2023/01/05 06:01:08;;;;;;;0.75;0.75;;;18.00;75.50;;;18.37;43.22;97937.84;5032050;28;20069;-80
2023/01/05 06:03:34;;;;;;;0.93;0.93;;;17.90;75.30;;;18.45;43.08;97939.66;5037587;28;20033;-80
2023/01/05 06:06:00;;;;;;;0.60;0.60;;;17.90;75.30;;;18.36;43.20;97934.28;5037899;28;20046;-80
2023/01/05 06:08:28;;;;;;;0.60;0.60;;;18.00;75.50;;;18.38;43.27;97928.44;5030576;28;20071;-80
2023/01/05 06:10:55;;;;;;;0.80;0.80;;;18.00;75.20;;;18.36;43.30;97931.53;5020193;28;20166;-80
2023/01/05 06:13:21;;;;;;;0.70;0.70;;;17.90;75.30;;;18.36;43.23;97931.53;5022722;28;20037;-80
2023/01/05 06:15:48;;;;;;;0.50;0.50;;;17.90;75.40;;;18.40;43.16;97918.72;5018031;28;20062;-80
2023/01/05 06:18:14;;;;;;;0.88;0.88;;;17.90;75.50;;;18.42;42.92;97932.13;5014696;28;20094;-80
2023/01/05 06:20:41;;;;;;;0.60;0.60;;;17.90;75.40;;;18.36;43.07;97934.28;5036538;28;20032;-80
2023/01/05 06:23:07;;;;;;;1.33;1.08;;;17.90;75.40;;;18.34;43.34;97942.09;5018682;28;20044;-80
2023/01/05 06:25:34;;;;;;;0.63;0.60;;;17.90;75.30;;;18.35;43.41;97940.91;5033337;28;20094;-80
2023/01/05 06:28:00;;;;;;;1.70;0.90;;;17.90;75.40;;;18.32;43.36;97940.78;5033712;28;20047;-80
2023/01/05 06:30:27;;;;;;;0.90;0.90;;;17.90;75.40;;;18.29;43.33;97944.25;5018454;28;20401;-80
2023/01/05 06:32:53;;;;;;;0.82;0.80;;;17.90;75.50;;;18.31;43.52;97940.00;5030246;28;20110;-80
2023/01/05 06:35:19;;;;;;;0.57;0.57;;;17.90;75.30;;;18.32;43.50;97943.53;5033243;28;20037;-80
2023/01/05 06:37:45;;;;;;;0.75;0.75;;;17.90;75.40;;;18.34;43.27;97939.34;5032943;28;20051;-80
2023/01/05 06:40:12;;;;;;;0.70;0.70;;;17.90;75.40;;;18.30;43.40;97943.91;5035234;28;20478;-80
2023/01/05 06:42:38;;;;;;;2.83;0.80;;;17.90;75.50;;;18.26;43.54;97945.72;5018466;28;20045;-80
2023/01/05 06:45:05;;;;;;;0.55;0.55;;;17.90;75.50;;;18.27;43.69;97941.84;5019651;28;20040;-80
2023/01/05 06:47:31;;;;;;;0.70;0.70;;;17.90;75.50;;;18.26;43.40;97933.94;5033320;28;20033;-80
2023/01/05 06:49:57;;;;;;;0.60;0.60;;;17.90;75.50;;;18.27;43.40;97936.38;5035741;28;20059;-79
2023/01/05 06:52:23;;;;;;;0.57;0.57;;;17.90;75.60;;;18.25;43.59;97938.66;5031806;28;20052;-80
2023/01/05 06:54:50;;;;;;;0.90;0.90;;;17.90;75.70;;;18.23;43.62;97938.19;5032166;28;20029;-80
2023/01/05 06:57:15;;;;;;;0.70;0.68;;;17.80;75.60;;;18.28;43.62;97932.47;5018283;28;20040;-80
2023/01/05 06:59:42;;;;;;;0.70;0.70;;;17.80;75.80;;;18.28;43.37;97939.91;5009334;28;20045;-80
2023/01/05 07:02:13;;;;;;;0.50;0.50;;;17.90;75.90;;;18.25;43.49;97955.13;5034617;28;20051;-80
2023/01/05 07:04:40;;;;;;;;;;;17.90;75.80;;;18.20;43.58;97969.06;5031473;28;20105;-80
2023/01/05 07:07:07;;;;;;;0.68;0.68;;;17.90;75.70;;;18.23;43.46;97982.91;5047059;28;20334;-80
2023/01/05 07:09:33;;;;;;;1.15;0.88;;;17.80;75.70;;;18.24;43.66;97980.94;5047775;28;20041;-80
2023/01/05 07:11:59;;;;;;;0.68;0.68;;;17.80;75.80;;;18.21;43.62;97992.63;5029293;28;20118;-80
2023/01/05 07:14:25;;;;;;;0.60;0.60;;;17.80;75.90;;;18.21;43.86;97990.66;5046125;28;20041;-80
2023/01/05 07:16:51;;;;;;;0.65;0.65;;;17.80;75.80;;;18.20;43.66;98021.22;5030763;28;20170;-80
2023/01/05 07:19:17;;;;;;;0.63;0.63;;;17.80;75.70;;;18.27;43.55;98015.16;5047393;28;20483;-80
2023/01/05 07:21:43;;;;;;;1.80;0.88;;;17.80;75.70;;;18.24;43.50;98024.88;5003637;28;20044;-80
2023/01/05 07:24:10;;;;;;;0.52;0.50;;;17.80;75.90;;;18.21;43.32;98031.06;5029369;28;20410;-79
2023/01/05 07:26:36;;;;;;;0.70;0.70;;;17.80;76.00;;;18.18;43.57;98038.03;5049048;28;20048;-80
2023/01/05 07:29:02;;;;;;;0.50;0.47;;;17.80;76.10;;;18.20;43.63;98043.97;5034289;28;20040;-80
2023/01/05 07:31:29;;;;;;;0.60;0.60;;;17.70;76.10;;;18.22;43.58;98049.16;5033762;28;20044;-80
2023/01/05 07:33:55;;;;;;;0.50;0.50;;;17.70;76.10;;;18.23;43.61;98050.72;5033345;28;20046;-80
2023/01/05 07:36:22;;;;;;;0.80;0.80;;;17.70;76.10;;;18.21;43.61;98053.00;5030891;28;20068;-80
2023/01/05 07:38:49;;;;;;;1.05;0.95;;;17.70;76.00;;;18.26;43.55;98043.75;5046295;28;20118;-80
2023/01/05 07:41:14;;;;;;;0.55;0.52;;;17.80;76.00;;;18.24;43.54;98035.84;5046413;28;20071;-80
2023/01/05 07:43:41;;;;;;;0.80;0.80;;;17.70;76.10;;;18.21;43.69;98037.34;5033459;28;20041;-80
2023/01/05 07:46:08;;;;;;;0.80;0.80;;;17.70;76.00;;;18.22;43.59;98043.66;5048261;28;20048;-80
2023/01/05 07:48:35;;;;;;;0.70;0.70;;;17.70;76.10;;;18.20;43.50;98043.97;5049222;28;20045;-79
2023/01/05 07:51:03;;;;;;;0.70;0.70;;;17.70;76.00;;;18.21;43.55;98039.28;5036269;28;20040;-80
2023/01/05 07:53:30;;;;;;;0.55;0.52;;;17.70;76.10;;;18.18;43.54;98031.75;5033064;28;20036;-80
2023/01/05 07:56:00;;;;;;;0.93;0.93;;;17.70;76.90;;;18.19;43.51;98030.59;5034242;28;20062;-80
2023/01/05 07:58:26;;;;;;;0.60;0.60;;;17.70;76.10;;;18.19;43.47;98027.84;5012038;28;20040;-79
2023/01/05 08:00:53;;;;;;;0.70;0.70;;;17.70;76.10;;;18.16;43.71;98034.81;5050826;28;20032;-80
2023/01/05 08:03:19;;;;;;;0.60;0.60;;;17.70;76.10;;;18.19;43.63;98028.66;5031190;28;20054;-80
2023/01/05 08:05:45;;;;;;;0.95;0.93;;;17.60;76.00;;;18.16;43.41;98039.50;5033801;28;20044;-80
2023/01/05 08:08:12;;;;;;;0.50;0.50;;;17.70;76.10;;;18.19;43.63;98044.31;5002546;28;20041;-80
2023/01/05 08:10:42;;;;;;;1.55;1.17;;;17.70;76.10;;;18.19;43.70;98056.13;5029703;28;20090;-80
2023/01/05 08:15:55;;;;;;;0.68;0.68;;;17.70;76.10;;;18.17;43.63;98060.34;5035581;28;20028;-80
2023/01/05 08:18:21;;;;;;;0.80;0.80;;;17.70;76.10;;;18.13;43.68;98064.91;5032675;28;20483;-80
2023/01/05 08:20:56;;;;;;;1.55;0.93;;;17.60;76.10;;;18.17;43.63;98069.38;5037944;28;20473;-80
2023/01/05 08:23:23;;;;;;;0.70;0.70;;;17.70;76.20;;;18.17;43.67;98069.38;5012648;28;20052;-80
2023/01/05 08:25:50;;;;;;;0.85;0.85;;;17.70;76.10;;;18.13;43.64;98067.66;5034059;28;20048;-80
2023/01/05 08:28:16;;;;;;;1.38;0.90;;;17.70;76.10;;;18.10;43.54;98060.09;5043617;28;20041;-80
2023/01/05 08:30:42;;;;;;;0.90;0.77;;;17.60;76.10;;;18.12;43.82;98063.31;5020447;28;20397;-79
2023/01/05 08:33:09;;;;;;;0.70;0.70;;;17.60;76.00;;;18.12;43.80;98061.38;5048623;28;20484;-80
2023/01/05 08:35:39;;;;;;;1.05;0.68;;;17.60;76.00;;;18.13;43.70;98064.91;5015302;28;20526;-80
2023/01/05 08:38:06;;;;;;;0.82;0.82;;;17.60;76.00;;;18.17;43.61;98058.41;5034553;28;20423;-80
2023/01/05 08:40:32;;;;;;;1.88;1.20;;;17.60;76.00;;;18.17;43.58;98060.34;5045699;28;20041;-80
2023/01/05 08:42:58;;;;;;;0.70;0.70;;;17.60;76.00;;;18.16;43.54;98070.50;5048964;28;20071;-80
2023/01/05 08:45:27;;;;;;;1.38;0.60;;;17.60;76.00;;;18.14;43.67;98064.56;5046443;28;20090;-79
2023/01/05 08:47:53;;;;;;;0.50;0.50;;;17.60;76.00;;;18.12;43.62;98066.84;5030016;28;20041;-80
2023/01/05 08:50:19;;;;;;;0.65;0.63;;;17.60;76.10;;;18.11;43.62;98058.94;5020696;28;20062;-80
2023/01/05 08:52:45;;;;;;;0.90;0.90;;;17.60;76.00;;;18.13;43.76;98065.69;5027794;28;20067;-80
2023/01/05 08:55:11;;;;;;;1.15;1.08;;;17.60;76.00;;;18.18;43.47;98053.69;5036698;28;20061;-80
2023/01/05 08:57:37;;;;;;;0.80;0.80;;;17.60;76.10;;;18.12;43.68;98055.09;5017375;28;20480;-80
2023/01/05 09:00:05;;;;;;;1.27;0.82;;;17.60;76.00;;;18.10;43.70;98051.88;5018020;28;20045;-80
2023/01/05 09:02:32;;;;;;;1.10;0.80;;;17.60;76.00;;;18.10;43.55;98046.38;5038314;28;20047;-80
2023/01/05 09:04:58;;;;;;;0.52;0.52;;;17.60;76.10;;;18.10;43.64;98041.69;5030973;28;20920;-80
2023/01/05 09:07:27;;;;;;;0.68;0.68;;;17.60;76.00;;;18.14;43.68;98055.53;5051720;28;20085;-80
2023/01/05 09:09:53;;;;;;;0.80;0.80;;;17.60;76.00;;;18.15;43.72;98040.66;5040513;28;20384;-80
2023/01/05 09:12:19;;;;;;;0.50;0.50;;;17.60;76.00;;;18.14;43.66;98042.63;5019866;28;20048;-80
2023/01/05 09:14:47;;;;;;;1.00;0.90;;;17.60;76.00;;;18.17;43.45;98049.38;5033955;28;20072;-80
2023/01/05 09:17:13;;;;;;;1.23;0.90;;;17.60;76.00;;;18.17;43.54;98057.59;5053888;28;20033;-80
2023/01/05 09:19:42;;;;;;;0.95;0.80;;;17.60;76.00;;;18.23;43.14;98057.03;5036382;28;20045;-80
2023/01/05 09:22:08;;;;;;;1.02;0.93;;;17.60;76.10;;;18.21;43.44;98059.28;5032806;28;20037;-80
2023/01/05 09:24:34;;;;;;;1.65;1.02;;;17.60;76.00;;;18.19;43.30;98058.88;5022345;28;20059;-80
2023/01/05 09:27:02;;;;;;;2.42;1.10;;;17.60;76.00;;;18.20;43.59;98048.69;5053767;28;20047;-80
2023/01/05 09:29:28;;;;;;;2.03;0.95;;;17.60;76.00;;;18.23;43.37;98053.47;5022185;28;20041;-80
2023/01/05 09:31:55;;;;;;;1.15;1.00;;;17.60;76.00;;;18.25;43.55;98050.41;5022501;28;20040;-80
2023/01/05 09:34:20;;;;;;;1.38;0.80;;;17.60;76.00;;;18.21;43.57;98048.31;5029276;28;20041;-80
2023/01/05 09:36:47;;;;;;;1.00;0.90;;;17.60;76.10;;;18.21;43.43;98042.03;5049979;28;20127;-80
2023/01/05 09:39:13;;;;;;;1.25;0.60;;;17.60;76.10;;;18.24;43.70;98049.56;5036151;28;20502;-80
2023/01/05 09:41:45;;;;;;;0.73;0.73;;;17.60;76.00;;;18.34;43.16;98046.41;5032104;28;20041;-80
2023/01/05 09:44:36;;;;;;;1.55;0.90;;;17.60;76.10;;;18.26;43.43;98046.50;5020741;28;20665;-80
2023/01/05 09:47:14;;;;;;;1.15;1.08;;;17.60;76.00;;;18.24;43.69;98049.56;5036603;28;20120;-80
2023/01/05 09:49:40;;;;;;;0.77;0.77;;;17.60;76.00;;;18.25;43.43;98033.94;5032409;28;20038;-80
2023/01/05 09:52:11;;;;;;;0.70;0.70;;;17.60;76.00;;;18.23;43.44;98035.06;5027779;28;20056;-80
2023/01/05 09:54:37;;;;;;;0.93;0.93;;;17.60;76.00;;;18.26;43.52;98047.28;5009731;28;20040;-80
2023/01/05 09:57:06;;;;;;;0.88;0.88;;;17.60;76.00;;;18.27;43.54;98037.94;5005031;28;20047;-80
2023/01/05 09:59:43;;;;;;;1.92;1.08;;;17.60;76.00;;;18.22;43.58;98038.97;5032538;28;20098;-80
2023/01/05 10:02:20;;;;;;;3.35;0.90;;;17.70;76.10;;;18.30;43.29;98039.19;5030898;28;20040;-80
2023/01/05 10:04:46;;;;;;;1.00;1.00;;;17.70;76.20;;;18.25;43.33;98040.22;5049468;28;20124;-80
2023/01/05 10:07:30;;;;;;;0.98;0.77;;;17.70;76.10;;;18.17;43.61;98041.94;5020946;28;20109;-80
2023/01/05 10:09:59;;;;;;;0.90;0.90;;;17.60;76.10;;;18.25;43.40;98040.22;5043164;28;20062;-80
2023/01/05 10:13:01;;;;;;;0.73;0.73;;;17.60;76.00;;;18.22;43.58;98043.66;5029258;28;20055;-80
2023/01/05 10:15:35;;;;;;;0.82;0.82;;;17.60;76.00;;;18.19;43.33;98041.56;5035929;28;20120;-80
2023/01/05 10:18:13;;;;;;;0.68;0.68;;;17.60;76.00;;;18.22;43.41;98047.19;5020114;28;20500;-79
2023/01/05 10:20:59;;;;;;;1.65;0.90;;;17.60;76.00;;;18.21;43.37;98042.03;5000290;28;20063;-80
2023/01/05 10:24:05;;;;;;;0.55;0.55;;;17.60;76.00;;;18.22;43.34;98036.22;5038699;28;20055;-80
2023/01/05 10:26:53;;;;;;;0.88;0.70;;;17.60;76.00;;;18.22;43.46;98029.94;5051669;28;20122;-80
2023/01/05 10:29:43;;;;;;;1.27;0.90;;;17.70;76.20;;;18.24;43.39;98027.63;5047795;28;20037;-80
2023/01/05 10:32:30;;;;;;;1.42;0.93;;;17.60;76.00;;;18.28;43.21;98017.56;5007856;28;20307;-80
2023/01/05 10:35:01;;;;;;;1.73;0.95;;;17.70;76.10;;;18.34;43.24;98023.63;5064987;28;20454;-80
2023/01/05 10:37:36;;;;;;;3.60;1.27;;;17.70;76.00;;;18.32;43.32;98026.72;5032786;28;20036;-80
2023/01/05 10:40:13;;;;;;;1.08;0.80;;;17.70;76.10;;;18.33;42.79;98022.03;5065724;28;20045;-80
2023/01/05 10:43:01;;;;;;;1.63;1.48;;;17.70;75.80;;;18.36;43.15;98019.38;5054293;28;20037;-80
2023/01/05 10:45:29;;;;;;;2.45;1.00;;;17.80;75.80;;;18.46;43.01;98014.59;5066316;28;20399;-80
2023/01/05 10:47:55;;;;;;;1.10;1.00;;;17.80;75.90;;;18.46;42.99;98020.06;5034137;28;20499;-80
2023/01/05 10:50:33;;;;;;;0.70;0.70;;;17.80;75.80;;;18.50;42.99;98021.00;5013225;28;20066;-80
2023/01/05 10:53:06;;;;;;;1.23;1.10;;;17.80;75.90;;;18.49;42.89;98014.69;5049333;28;20551;-80
2023/01/05 10:55:33;;;;;;;1.10;0.90;;;17.80;75.80;;;18.50;42.89;98012.75;5034353;28;20047;-80
2023/01/05 10:57:58;;;;;;;2.72;1.25;;;17.80;75.70;;;18.44;43.13;98009.44;5017942;28;20041;-80
2023/01/05 11:00:40;;;;;;;1.08;0.98;;;17.90;75.80;;;18.45;43.46;98013.78;5032116;28;20126;-80
2023/01/05 11:03:12;;;;;;;1.38;0.82;;;17.90;75.50;;;18.43;43.13;98005.09;5021604;28;20555;-80